Date,TemperatureHighF,TemperatureAvgF,TemperatureLowF,DewpointHighF,DewpointAvgF,DewpointLowF,HumidityHigh,HumidityAvg,HumidityLow,PressureMaxIn,PressureMinIn,WindSpeedMaxMPH,WindSpeedAvgMPH,GustSpeedMaxMPH,PrecipitationSumIn
2013-1-1,34.7,29.6,16.9,27.0,19.5,8.0,80,67,51,29.93,29.72,0,0,1,0.00
2013-1-2,29.6,18.0,9.3,17.0,9.3,4.0,80,69,54,30.11,29.90,1,0,4,0.00
2013-1-3,24.6,12.9,1.3,10.0,1.6,-6.0,77,62,37,30.15,30.00,0,0,3,0.00
2013-1-4,37.4,28.4,14.1,26.0,20.5,8.0,84,73,59,29.99,29.81,3,0,6,0.00
2013-1-5,40.9,32.0,21.9,26.0,22.2,17.0,84,68,50,30.26,29.85,3,0,5,0.09
2013-1-6,42.5,31.5,22.2,30.0,25.6,18.0,94,79,60,30.23,29.95,1,0,5,0.14
2013-1-7,39.7,31.4,20.7,29.0,23.4,16.0,93,74,49,30.39,29.97,0,0,1,0.01
2013-1-8,44.9,33.5,18.9,29.0,25.4,16.0,87,73,53,30.37,30.27,5,0,9,0.03
2013-1-9,42.5,34.5,23.0,36.0,28.6,21.0,94,80,59,30.39,30.00,4,0,6,0.05
2013-1-10,45.0,38.7,30.1,30.0,26.5,24.0,80,62,48,30.54,30.05,4,0,10,0.00
2013-1-11,37.4,31.8,25.3,34.0,27.6,23.0,97,84,67,30.53,30.23,0,0,1,0.07
2013-1-12,40.3,37.3,34.0,40.0,36.9,33.0,99,98,97,30.22,30.13,0,0,1,0.01
2013-1-13,48.9,43.8,38.5,48.0,43.7,38.0,100,99,96,30.15,29.98,3,0,5,0.01
2013-1-14,59.1,48.5,39.1,52.0,43.4,31.0,99,84,51,30.25,29.84,3,0,4,0.00
2013-1-15,40.6,35.4,29.9,31.0,27.1,25.0,86,72,56,30.32,30.22,0,0,1,0.00
2013-1-16,32.5,31.3,29.0,32.0,29.5,26.0,98,93,79,30.25,29.83,0,0,0,0.00
2013-1-17,39.5,32.6,27.3,35.0,28.1,16.0,98,84,59,30.10,29.83,1,0,3,0.23
2013-1-18,27.9,20.8,15.6,18.0,6.2,2.0,73,54,37,30.45,30.07,1,0,6,0.00
2013-1-19,46.5,34.6,19.4,32.0,22.9,10.0,79,63,44,30.38,29.88,5,1,9,0.07
2013-1-20,49.9,37.2,27.2,33.0,27.1,12.0,79,68,50,29.92,29.57,5,1,11,0.00
2013-1-21,27.3,23.2,18.5,20.0,12.2,7.0,93,65,46,30.09,29.80,2,0,5,0.00
2013-1-22,24.6,18.3,10.9,19.0,9.4,1.0,95,70,45,30.08,29.76,2,0,4,0.00
2013-1-23,15.9,9.5,3.9,1.0,-5.1,-8.0,71,53,37,30.15,30.07,1,0,6,0.00
2013-1-24,19.3,9.5,0.6,-2.0,-6.4,-10.0,65,50,35,30.24,30.08,3,0,5,0.00
2013-1-25,22.9,14.7,6.5,12.0,-3.5,-8.0,81,45,29,30.32,30.07,1,0,4,0.00
2013-1-26,24.6,15.6,7.6,12.0,4.1,-3.0,90,64,37,30.25,30.01,0,0,3,0.00
2013-1-27,29.8,18.7,8.7,6.0,3.0,0.0,73,53,32,30.47,30.25,1,0,3,0.00
2013-1-28,29.4,22.9,15.5,24.0,13.7,3.0,95,70,44,30.46,30.03,2,0,2,0.00
2013-1-29,32.9,28.8,22.9,31.0,27.2,22.0,97,94,89,30.20,30.03,0,0,1,0.00
2013-1-30,57.8,45.0,32.0,56.0,44.4,31.0,100,98,93,30.15,29.44,6,0,8,0.23
2013-1-31,59.8,45.4,28.7,59.0,37.1,17.0,99,74,49,29.58,28.95,8,2,19,0.45
2013-2-1,32.5,27.2,20.5,17.0,10.3,5.0,62,50,38,30.09,29.58,7,0,8,0.00
2013-2-2,29.1,23.0,14.2,12.0,8.1,4.0,66,54,42,30.25,30.05,3,0,6,0.00
2013-2-3,27.3,23.5,17.4,22.0,19.8,12.0,93,86,59,30.06,29.74,1,0,1,0.00
2013-2-4,28.6,22.5,17.0,21.0,12.0,6.0,93,66,45,29.95,29.73,4,0,11,0.00
2013-2-5,29.3,23.7,17.8,21.0,14.2,9.0,90,68,52,30.03,29.94,0,0,1,0.00
2013-2-6,37.3,28.2,21.0,26.0,18.9,6.0,95,71,44,30.30,29.93,4,0,6,0.00
2013-2-7,31.3,22.9,12.4,8.0,5.6,3.0,80,50,33,30.52,30.30,1,0,4,0.00
2013-2-8,25.7,22.4,17.0,23.0,18.0,5.0,94,84,46,30.50,29.65,1,0,6,0.00
2013-2-9,23.3,18.5,12.7,21.0,14.7,5.0,94,85,69,30.20,29.61,0,0,0,0.00
2013-2-10,41.1,22.6,6.7,16.0,5.6,-1.0,74,51,24,30.40,30.21,0,0,0,0.14
2013-2-11,33.5,27.8,18.5,33.0,23.6,6.0,98,85,54,30.35,29.62,0,0,0,0.00
2013-2-12,42.4,37.1,31.3,36.0,30.0,26.0,99,76,61,29.88,29.62,3,0,7,0.20
2013-2-13,42.2,33.2,25.3,28.0,24.9,22.0,88,73,54,29.86,29.72,1,0,5,0.09
2013-2-14,45.5,34.5,26.2,26.0,23.2,20.0,81,65,41,29.99,29.72,2,0,3,0.00
2013-2-15,50.2,37.4,26.4,35.0,30.0,23.0,95,76,55,29.99,29.89,3,0,6,0.00
2013-2-16,38.1,31.3,29.0,33.0,18.4,-99.9,96,74,60,29.95,29.73,0,-74,1,0.01
2013-2-17,28.5,16.5,15.8,22.0,-14.5,-99.9,90,48,50,29.73,29.41,4,-221,8,0.00
2013-2-18,31.1,20.0,13.0,8.0,-8.7,-99.9,61,40,31,30.16,29.70,4,-118,8,0.00
2013-2-19,45.7,30.9,19.7,40.0,9.9,-99.9,98,61,45,30.18,29.58,1,-125,3,0.16
2013-2-20,38.9,26.3,25.1,38.0,2.8,-99.9,98,57,49,29.78,29.55,5,-147,6,0.00
2013-2-21,33.7,24.0,22.6,18.0,2.5,-99.9,76,56,48,30.20,29.77,4,-114,6,0.00
2013-2-22,41.5,28.1,21.8,26.0,7.7,-99.9,84,60,43,30.39,30.22,0,-114,2,0.00
2013-2-23,37.0,28.2,27.2,32.0,10.4,-99.9,97,73,76,30.33,29.92,1,-146,1,0.00
2013-2-24,33.6,24.7,30.7,33.0,0.4,-99.9,100,74,97,29.92,29.71,0,-239,1,0.11
2013-2-25,38.5,28.5,29.4,36.0,12.4,-99.9,98,81,85,30.24,29.91,0,-150,1,0.18
2013-2-26,44.3,29.0,27.4,36.0,4.9,-99.9,99,66,63,30.34,30.16,0,-198,2,0.29
2013-2-27,40.0,20.8,32.9,40.0,-23.0,-99.9,99,54,86,30.16,29.58,3,-431,5,0.60
2013-2-28,46.1,26.5,30.9,39.0,-6.2,-99.9,99,62,76,29.64,29.54,0,-308,1,0.00
2013-3-1,41.1,31.8,31.2,34.0,14.5,-99.9,100,71,68,29.69,29.54,0,-126,1,0.00
2013-3-2,41.0,30.3,31.0,32.0,7.3,-99.9,87,62,64,29.68,29.63,0,-168,2,0.00
2013-3-3,40.4,29.0,30.8,32.0,9.3,-99.9,95,70,72,29.65,29.57,0,-158,1,0.00
2013-3-4,39.3,29.1,28.1,28.0,8.8,-99.9,84,64,60,29.75,29.59,1,-135,6,0.00
2013-3-5,47.6,32.7,29.0,32.0,16.2,-99.9,92,67,53,30.07,29.76,0,-94,1,0.00
2013-3-6,38.6,29.2,32.4,35.0,11.8,-99.9,98,78,78,30.11,30.05,1,-159,5,0.02
2013-3-7,33.9,26.2,29.8,32.0,8.1,-99.9,97,78,88,30.09,30.01,0,-170,2,0.04
2013-3-8,37.0,15.2,28.5,33.0,-39.9,-99.9,98,42,82,30.16,29.96,0,-541,1,0.00
2013-3-9,55.4,27.2,26.1,32.0,-12.1,-99.9,96,45,27,30.36,30.15,1,-305,2,0.47
2013-3-10,48.9,31.8,24.0,33.0,15.4,-99.9,97,71,53,30.42,30.30,0,-110,3,0.02
2013-3-11,52.3,37.0,32.7,40.0,21.6,-99.9,96,73,54,30.33,30.15,3,-102,6,0.00
2013-3-12,53.2,41.0,39.3,51.0,25.7,-99.9,99,82,88,30.15,29.72,3,-146,6,0.28
2013-3-13,52.0,35.0,30.3,50.0,7.8,-99.9,99,55,39,29.78,29.70,1,-178,4,0.00
2013-3-14,34.7,25.6,20.9,26.0,1.7,-99.9,76,52,45,29.84,29.72,3,-129,6,0.00
2013-3-15,39.6,27.7,18.5,29.0,6.2,-99.9,81,53,30,29.87,29.64,5,-85,7,0.00
2013-3-16,39.1,30.3,26.9,27.0,6.6,-99.9,78,48,31,29.89,29.68,1,-87,3,0.00
2013-3-17,40.0,27.3,21.3,19.0,1.8,-99.9,81,45,29,30.32,29.88,2,-97,5,0.00
2013-3-18,38.8,26.0,15.5,27.0,-0.4,-99.9,93,44,22,30.46,30.24,1,-94,3,0.00
2013-3-19,33.7,24.1,27.4,33.0,0.8,-99.9,98,74,93,30.23,29.64,0,-228,1,0.03
2013-3-20,39.0,26.2,23.8,26.0,9.8,-99.9,96,71,55,29.82,29.71,2,-111,5,0.13
2013-3-21,40.1,27.4,19.0,28.0,13.9,-99.9,95,71,43,29.82,29.62,0,-64,2,0.06
2013-3-22,41.8,30.2,25.2,25.0,12.2,-99.9,94,60,44,29.75,29.62,1,-77,5,0.21
2013-3-23,43.7,32.3,25.4,24.0,14.3,-99.9,84,58,43,29.80,29.64,3,-64,7,0.24
2013-3-24,49.5,35.4,29.4,29.0,16.5,-99.9,79,56,41,29.82,29.73,1,-65,3,0.01
2013-3-25,43.1,32.7,28.7,33.0,17.0,-99.9,87,69,66,29.77,29.53,1,-95,4,0.00
2013-3-26,52.0,36.2,32.3,31.0,14.7,-99.9,83,56,35,29.79,29.55,0,-96,3,0.00
2013-3-27,53.8,38.4,29.2,32.0,18.0,-99.9,81,54,39,29.88,29.75,1,-67,3,0.00
2013-3-28,51.2,38.4,33.8,36.0,22.4,-99.9,97,68,46,30.02,29.88,0,-84,3,0.00
2013-3-29,57.8,40.7,32.7,37.0,16.9,-99.9,87,54,36,30.05,29.97,2,-121,4,0.00
2013-3-30,59.8,42.0,33.9,34.0,16.8,-99.9,86,48,22,30.10,30.00,1,-70,4,0.00
2013-3-31,59.5,41.0,26.5,41.0,16.6,-99.9,94,52,25,30.12,29.74,6,-94,11,0.00
2013-4-1,61.7,42.2,32.9,45.0,24.8,-99.9,98,65,43,29.79,29.50,4,-80,6,0.12
2013-4-2,40.4,30.9,28.5,18.0,6.5,-99.9,61,44,33,29.94,29.80,5,-71,10,0.00
2013-4-3,47.2,33.4,28.8,19.0,4.5,-99.9,63,39,24,30.16,29.93,4,-89,8,0.00
2013-4-4,56.3,39.7,27.8,25.0,10.2,-99.9,65,38,19,30.30,30.05,4,-62,6,0.00
2013-4-5,65.4,43.7,35.8,30.0,19.9,-99.9,77,48,18,30.05,29.63,3,-56,5,0.00
2013-4-6,50.3,35.8,27.7,26.0,6.3,-99.9,67,37,17,30.34,29.89,5,-57,7,0.00
2013-4-7,57.7,41.4,24.4,40.0,21.4,-99.9,82,54,29,30.34,30.00,6,-50,13,0.00
2013-4-8,70.3,53.1,41.9,43.0,40.1,35.0,96,66,29,30.08,29.95,2,0,4,0.00
2013-4-9,72.9,53.3,44.3,55.0,35.3,-99.9,97,62,39,30.07,29.86,2,-67,8,0.02
2013-4-10,67.1,49.9,44.5,52.0,37.7,-99.9,100,77,55,30.01,29.85,1,-67,2,0.14
2013-4-11,55.2,42.0,39.9,48.0,22.3,-99.9,100,65,46,30.14,29.82,0,-119,1,0.02
2013-4-12,38.6,27.8,35.4,37.0,2.2,-99.9,98,71,84,30.17,29.81,1,-247,4,0.29
2013-4-13,54.2,33.2,35.2,42.0,-2.9,-99.9,98,51,57,29.95,29.78,2,-300,3,0.00
2013-4-14,53.4,40.7,33.9,41.0,21.9,-99.9,93,61,43,30.22,29.92,2,-87,5,0.00
2013-4-15,63.3,42.9,28.4,39.0,24.8,-99.9,92,61,35,30.39,30.22,1,-66,5,0.00
2013-4-16,68.5,49.5,34.5,52.0,34.6,-99.9,98,69,44,30.39,30.06,5,-62,13,0.00
2013-4-17,72.2,54.5,47.5,54.0,27.8,-99.9,93,47,22,30.31,30.06,3,-75,5,0.00
2013-4-18,67.7,48.1,35.6,45.0,24.5,-99.9,85,51,32,30.42,30.14,3,-74,6,0.00
2013-4-19,75.5,57.7,51.7,63.0,43.2,-99.9,98,75,61,30.13,29.64,7,-93,15,0.00
2013-4-20,66.5,45.4,41.7,63.0,20.5,-99.9,98,57,41,30.22,29.59,4,-145,12,0.15
2013-4-21,57.6,42.6,29.1,29.0,23.8,20.0,81,51,24,30.68,30.23,2,0,4,0.00
2013-4-22,56.2,40.2,28.2,34.0,23.0,-99.9,94,62,29,30.76,30.60,5,-52,6,0.00
2013-4-23,40.9,26.8,35.8,40.0,-5.8,-99.9,97,63,79,30.60,30.15,0,-308,1,0.00
2013-4-24,77.7,44.6,42.9,54.0,3.9,-99.9,97,43,26,30.12,29.78,4,-291,7,0.00
2013-4-25,68.8,52.1,41.0,52.0,28.0,-99.9,95,51,22,30.27,29.82,4,-63,5,0.01
2013-4-26,65.4,47.2,35.6,39.0,25.8,-99.9,81,53,34,30.43,30.27,2,-64,4,0.00
2013-4-27,71.0,51.1,33.4,40.0,36.5,32.0,97,63,29,30.42,30.28,3,0,4,0.00
2013-4-28,74.7,54.8,35.5,43.0,37.2,32.0,97,58,24,30.34,30.20,3,0,4,0.00
2013-4-29,73.6,55.4,43.4,49.0,32.4,-99.9,89,49,28,30.27,30.17,3,-42,6,0.00
2013-4-30,75.9,56.5,44.0,39.0,24.9,-99.9,73,36,17,30.36,30.24,2,-42,4,0.00
2013-5-1,76.8,53.1,35.5,41.0,26.1,-99.9,90,46,23,30.46,30.36,3,-62,5,0.00
2013-5-2,84.9,55.3,40.5,47.0,32.3,-99.9,93,54,21,30.48,30.33,2,-62,6,0.00
2013-5-3,68.4,49.1,38.2,46.0,32.6,-99.9,92,65,43,30.52,30.38,2,-63,4,0.00
2013-5-4,69.9,47.9,35.7,47.0,26.3,-99.9,98,60,14,30.38,30.29,1,-83,5,0.00
2013-5-5,67.9,48.8,32.4,44.0,38.0,31.0,98,71,36,30.33,30.24,2,0,5,0.00
2013-5-6,45.8,28.1,33.5,43.0,2.6,-99.9,98,71,90,30.28,30.25,0,-242,1,0.00
2013-5-9,70.0,60.8,56.5,65.0,59.6,56.0,99,96,80,29.98,29.89,0,0,0,0.56
2013-5-10,82.2,60.5,50.9,63.0,42.8,-99.9,100,69,42,29.95,29.88,1,-95,4,0.01
2013-5-11,69.2,63.2,57.9,63.0,59.9,56.0,99,89,75,29.90,29.69,5,0,9,0.09
2013-5-12,72.2,53.2,48.0,61.0,34.0,-99.9,99,67,49,29.80,29.56,1,-114,5,0.12
2013-5-13,60.8,45.9,40.4,36.0,24.2,-99.9,78,52,34,30.03,29.81,5,-63,6,0.00
2013-5-14,61.8,46.9,38.0,37.0,28.0,-99.9,84,56,33,30.06,29.98,1,-42,4,0.00
2013-5-15,66.8,47.3,35.1,53.0,32.1,-99.9,95,70,37,30.05,29.67,3,-71,6,0.05
2013-5-16,83.7,62.7,50.6,52.0,31.6,-99.9,98,43,22,29.80,29.63,4,-83,6,0.00
2013-5-17,75.7,56.3,47.9,47.0,33.9,-99.9,80,52,29,30.21,29.81,0,-63,3,0.00
2013-5-18,76.7,55.7,40.1,50.0,33.2,-99.9,92,55,27,30.30,30.21,2,-73,3,0.00
2013-5-19,73.9,54.0,46.5,55.0,41.8,-99.9,98,76,46,30.34,30.21,1,-62,5,0.08
2013-5-20,84.5,59.1,55.4,68.0,37.5,-99.9,99,68,56,30.21,29.91,1,-156,3,0.00
2013-5-21,89.9,58.8,51.2,73.0,44.8,-99.9,100,77,54,30.02,29.84,0,-94,2,0.05
2013-5-22,72.4,54.2,49.9,67.0,44.9,-99.9,99,86,79,30.07,29.88,0,-63,3,0.31
2013-5-23,73.0,57.9,54.0,70.0,46.8,-99.9,99,85,86,29.93,29.80,3,-96,6,0.18
2013-5-24,71.1,55.5,47.7,67.0,42.2,-99.9,100,84,84,29.82,29.64,0,-104,2,0.43
2013-5-25,50.3,41.9,40.1,50.0,32.3,-99.9,99,89,98,29.82,29.72,0,-94,1,0.27
2013-5-26,58.2,41.3,38.2,46.0,22.8,-99.9,100,70,58,30.11,29.73,1,-135,5,0.04
2013-5-27,76.3,52.8,40.4,48.0,30.3,-99.9,96,57,27,30.17,30.07,1,-84,4,0.00
2013-5-28,78.8,54.3,40.7,54.0,32.2,-99.9,94,60,30,30.23,30.15,0,-104,3,0.00
2013-5-29,70.4,58.8,56.8,67.0,51.0,-99.9,99,89,85,30.18,29.98,0,-62,2,0.96
2013-5-30,89.0,69.1,62.7,99.9,57.2,-99.9,100,76,53,30.08,30.00,1,-62,4,0.00
2013-5-31,95.5,70.7,-90.0,72.0,49.1,-99.9,100,61,38,30.09,29.93,3,-97,4,0.00
2013-6-1,95.2,80.3,67.7,71.0,66.7,62.0,87,66,34,29.97,29.84,3,0,6,0.00
2013-6-2,91.5,69.6,68.2,71.0,48.9,-99.9,91,64,43,29.87,29.71,6,-114,7,0.00
2013-6-3,79.7,61.1,59.0,71.0,44.9,-99.9,98,74,58,29.84,29.75,0,-112,1,0.30
2013-6-4,76.7,55.8,49.8,52.0,35.0,-99.9,86,58,39,30.09,29.83,2,-86,3,0.00
2013-6-5,79.6,62.0,47.0,55.0,49.2,45.0,96,67,31,30.19,30.08,1,0,3,0.00
2013-6-6,75.4,62.7,52.2,56.0,52.5,49.0,92,71,46,30.18,30.09,2,0,3,0.01
2013-6-7,57.3,55.1,52.6,57.0,54.5,52.0,99,97,93,30.10,29.82,0,0,1,2.16
2013-6-8,80.0,62.4,52.1,67.0,58.6,52.0,100,89,61,30.00,29.63,2,0,5,1.33
2013-6-9,82.5,66.7,53.8,61.0,57.6,53.0,99,76,43,30.16,30.01,1,0,4,0.00
2013-6-10,68.9,61.1,54.6,63.0,58.6,53.0,99,91,75,30.19,30.01,0,0,0,0.65
2013-6-11,61.8,57.9,55.5,60.0,57.3,55.0,99,97,91,30.00,29.58,0,0,2,1.07
2013-6-12,71.8,61.5,56.2,60.0,57.0,54.0,100,86,63,29.82,29.56,1,0,3,0.02
2013-6-13,63.2,55.8,50.7,61.0,54.6,50.0,99,95,87,29.81,29.69,0,0,0,0.87
2013-6-14,77.9,60.0,51.0,64.0,55.8,51.0,99,87,54,29.77,29.65,1,0,2,0.97
2013-6-15,83.3,66.0,54.0,56.0,52.0,48.0,92,65,30,29.93,29.78,0,0,6,0.00
2013-6-16,74.2,64.8,52.8,64.0,56.6,49.0,90,76,54,29.93,29.70,0,0,3,0.00
2013-6-17,86.8,68.5,58.0,66.0,61.4,56.0,99,81,45,29.90,29.77,2,0,4,0.51
2013-6-18,73.1,61.8,57.4,69.0,60.9,57.0,100,97,81,29.94,29.88,0,0,1,0.24
2013-6-19,79.6,63.6,54.4,60.0,56.4,52.0,99,80,44,30.14,29.91,0,0,3,0.08
2013-6-20,82.3,64.8,48.4,59.0,53.4,47.0,98,71,36,30.26,30.15,0,0,3,0.00
2013-6-21,90.0,71.5,58.3,67.0,60.7,55.0,90,71,38,30.24,30.18,0,0,5,0.00
2013-6-22,86.4,72.7,61.4,67.0,62.2,59.0,92,71,45,30.21,30.10,1,0,4,0.00
2013-6-23,92.0,76.5,63.9,77.0,67.4,59.0,86,74,56,30.15,29.98,4,0,6,0.00
2013-6-24,94.7,79.5,69.6,78.0,71.4,67.0,96,78,53,30.01,29.86,1,0,3,0.03
2013-6-25,92.4,78.8,67.9,74.0,69.7,66.0,95,75,49,29.92,29.71,2,0,4,0.00
2013-6-26,85.0,75.1,69.0,73.0,69.9,67.0,97,84,67,29.84,29.72,0,0,2,0.01
2013-6-27,75.3,67.5,63.3,71.0,66.2,63.0,99,95,84,29.86,29.75,0,0,1,0.06
2013-6-28,81.0,69.4,59.6,76.0,67.6,59.0,100,94,77,29.75,29.47,2,0,6,0.45
2013-6-29,84.9,74.9,70.0,73.0,70.1,68.0,99,86,62,29.71,29.50,3,0,6,0.00
2013-6-30,87.2,75.5,67.8,75.0,70.8,67.0,98,86,64,29.93,29.71,1,0,3,0.00
2013-7-1,80.1,74.1,71.4,76.0,72.8,70.0,99,95,85,30.07,29.92,1,0,1,0.74
2013-7-2,84.1,73.8,63.2,77.0,71.7,62.0,100,93,75,30.20,30.06,0,0,2,0.01
2013-7-3,89.3,76.1,61.8,77.0,70.8,61.0,99,85,63,30.20,30.12,2,0,3,0.00
2013-7-4,93.6,81.6,72.4,78.0,74.3,72.0,98,80,56,30.19,30.08,2,0,3,0.00
2013-7-5,95.3,83.7,74.9,79.0,75.0,73.0,93,76,53,30.14,30.02,1,0,4,0.00
2013-7-6,92.8,80.2,73.2,76.0,73.5,67.0,95,81,53,30.07,29.97,1,0,2,0.00
2013-7-7,95.8,77.8,67.6,78.0,71.9,66.0,95,83,55,30.02,29.89,0,0,1,0.02
2013-7-8,89.3,76.7,68.6,79.0,73.3,67.0,99,89,64,30.05,29.90,0,0,1,0.00
2013-7-9,73.3,68.9,65.4,70.0,67.2,65.0,98,94,88,30.10,30.04,0,0,1,0.00
2013-7-10,86.2,73.6,66.6,78.0,71.6,66.0,99,94,74,30.07,29.78,2,0,5,0.20
2013-7-11,81.2,74.7,69.9,79.0,73.9,70.0,100,97,86,29.91,29.77,0,0,1,0.45
2013-7-12,81.2,69.8,64.6,68.0,64.3,60.0,99,83,56,30.19,29.92,0,0,1,0.00
2013-7-13,80.4,70.3,63.8,73.0,67.4,61.0,98,91,79,30.30,30.19,0,0,0,0.06
2013-7-14,90.9,77.2,69.3,79.0,73.7,69.0,100,90,59,30.30,30.20,0,0,1,0.00
2013-7-15,94.8,79.6,69.4,78.0,73.9,69.0,100,85,50,30.20,30.09,0,0,2,0.00
2013-7-16,100.1,80.9,69.3,75.0,71.6,67.0,95,76,42,30.16,30.09,0,0,1,0.00
2013-7-17,99.7,81.8,69.0,77.0,73.0,68.0,98,77,43,30.17,29.98,1,0,1,0.00
2013-7-18,98.2,83.3,74.1,78.0,74.8,71.0,93,77,49,29.99,29.92,1,0,1,0.00
2013-7-19,97.4,84.1,71.7,79.0,75.1,70.0,96,76,49,29.93,29.70,3,0,5,0.00
2013-7-20,92.7,82.8,74.0,79.0,75.4,68.0,93,79,60,29.78,29.64,4,0,4,0.00
2013-7-21,88.9,74.3,66.3,71.0,66.9,63.0,93,78,55,29.97,29.80,0,0,1,0.00
2013-7-22,86.8,72.6,64.0,73.0,67.8,63.0,98,86,61,30.01,29.88,0,0,1,0.00
2013-7-23,81.7,72.0,68.8,79.0,71.1,67.0,99,97,87,29.87,29.53,0,0,2,2.22
2013-7-24,86.1,74.9,65.1,73.0,69.5,58.0,100,85,57,29.95,29.57,0,0,3,0.00
2013-7-25,64.5,59.8,57.9,59.0,55.6,51.0,98,86,73,30.10,29.96,0,0,1,0.26
2013-7-26,71.1,63.9,59.0,69.0,63.1,59.0,100,97,89,30.06,29.95,0,0,1,0.28
2013-7-27,86.1,70.3,59.1,71.0,65.0,59.0,99,85,52,30.05,29.98,0,0,1,0.00
2013-7-28,87.7,71.9,63.3,74.0,67.9,62.0,98,88,56,30.02,29.95,1,0,1,0.10
2013-7-29,85.9,72.5,65.9,76.0,70.1,65.0,100,93,66,30.04,29.95,0,0,2,0.67
2013-7-30,85.9,69.8,60.3,66.0,62.0,58.0,99,79,44,30.09,30.03,0,0,2,0.00
2013-7-31,85.3,69.8,58.6,68.0,62.1,58.0,98,79,47,30.13,30.03,0,0,1,0.00
2013-8-1,80.8,66.8,60.5,70.0,64.3,60.0,99,91,69,30.04,29.87,0,0,1,0.10
2013-8-2,83.0,70.7,63.9,70.0,65.1,61.0,99,84,51,29.87,29.79,1,0,4,0.73
2013-8-3,80.4,69.8,62.9,67.0,64.0,60.0,94,82,62,29.86,29.77,0,0,2,0.00
2013-8-4,84.3,67.1,56.6,64.0,58.8,55.0,95,76,45,29.90,29.76,0,0,3,0.01
2013-8-5,81.7,64.3,54.9,56.0,51.9,48.0,92,68,31,30.05,29.89,0,0,3,0.00
2013-8-6,82.5,64.1,49.3,60.0,54.3,47.0,95,73,40,30.14,30.05,0,0,1,0.00
2013-8-7,84.0,67.2,54.0,63.0,57.6,53.0,98,75,39,30.18,30.10,1,0,2,0.00
2013-8-8,81.2,70.9,64.4,74.0,67.6,60.0,99,89,75,30.11,29.99,0,0,1,0.08
2013-8-9,74.5,72.2,70.6,75.0,71.6,70.0,100,98,93,30.01,29.74,0,0,3,0.95
2013-8-10,83.9,72.0,62.5,72.0,64.1,57.0,100,79,47,30.00,29.79,1,0,3,0.01
2013-8-11,84.2,66.8,53.6,65.0,57.7,52.0,97,75,43,30.07,29.99,0,0,2,0.00
2013-8-12,85.9,69.3,58.2,66.0,60.6,57.0,97,77,45,30.03,29.91,0,0,1,0.00
2013-8-13,74.4,67.7,64.1,70.0,65.8,62.0,98,94,80,29.91,29.68,0,0,0,0.04
2013-8-14,77.9,65.3,57.5,64.0,56.8,52.0,99,76,50,29.96,29.66,2,0,5,0.00
2013-8-15,79.8,63.6,51.4,58.0,54.2,50.0,97,75,42,30.11,29.97,1,0,3,0.00
2013-8-16,84.9,65.5,52.9,62.0,56.9,52.0,96,77,40,30.19,30.10,1,0,2,0.00
2013-8-17,86.3,67.6,54.4,65.0,59.7,53.0,97,78,42,30.27,30.19,0,0,1,0.00
2013-8-18,77.4,67.1,57.0,68.0,62.1,56.0,97,84,63,30.27,30.08,0,0,1,0.00
2013-8-19,82.8,69.5,58.8,66.0,62.2,58.0,98,79,55,30.07,29.95,0,0,1,0.00
2013-8-20,92.7,74.0,61.8,68.0,64.0,60.0,94,74,41,30.09,29.98,0,0,1,0.00
2013-8-21,92.7,74.0,60.5,70.0,64.6,59.0,96,75,45,30.14,30.02,0,0,1,0.00
2013-8-22,87.4,74.8,64.3,74.0,68.6,62.0,95,82,55,30.03,29.82,2,0,2,0.00
2013-8-23,87.2,72.6,62.0,70.0,61.1,54.0,94,70,36,30.12,29.82,0,0,1,0.00
2013-8-24,86.3,66.0,53.1,55.0,52.3,49.0,90,66,27,30.32,30.13,0,0,2,0.00
2013-8-25,86.8,67.5,50.8,60.0,54.2,49.0,96,67,30,30.36,30.18,0,0,8,0.00
2013-8-26,77.9,70.7,62.7,69.0,63.6,58.0,92,79,68,30.18,29.87,1,0,4,0.00
2013-8-27,91.6,74.3,66.7,74.0,69.3,65.0,99,86,49,29.89,29.82,0,0,1,0.08
2013-8-28,92.3,72.0,61.5,71.0,66.2,61.0,99,84,49,29.97,29.84,0,0,1,0.00
2013-8-29,67.2,64.9,60.3,65.0,62.7,59.0,95,92,86,30.07,29.93,0,0,1,0.00
2013-8-30,86.5,70.6,58.3,70.0,64.7,58.0,97,83,56,30.03,29.82,0,0,3,0.00
2013-8-31,80.4,73.9,69.0,75.0,71.4,68.0,99,92,82,29.82,29.77,0,0,1,0.01
2013-9-1,80.7,72.6,68.3,78.0,71.8,68.0,100,97,88,29.87,29.78,0,0,1,0.12
2013-9-2,76.3,73.1,71.4,76.0,72.9,71.0,100,99,96,29.85,29.70,0,0,1,0.44
2013-9-3,79.3,71.2,62.5,73.0,68.6,59.0,100,92,80,29.80,29.69,0,0,1,0.00
2013-9-4,82.5,67.3,56.6,64.0,58.6,56.0,99,77,43,29.91,29.80,2,0,4,0.00
2013-9-5,75.2,63.0,49.7,62.0,55.1,47.0,97,77,43,30.14,29.86,0,0,1,0.02
2013-9-6,75.3,56.6,43.3,49.0,44.9,41.0,93,69,33,30.25,30.09,0,0,3,0.00
2013-9-7,80.4,63.3,49.1,59.0,52.1,46.0,92,70,37,30.09,29.85,3,0,3,0.00
2013-9-8,78.3,64.3,48.8,64.0,53.9,43.0,95,72,36,30.10,29.75,4,0,4,0.01
2013-9-9,72.3,56.1,41.6,52.0,45.9,39.0,93,71,43,30.23,30.09,0,0,1,0.00
2013-9-10,74.8,65.7,56.4,72.0,63.1,51.0,98,91,81,30.15,30.03,0,0,3,0.06
2013-9-11,96.7,80.1,68.3,78.0,73.3,68.0,100,82,49,30.06,29.93,1,0,3,0.00
2013-9-12,87.4,76.5,67.3,76.0,70.9,67.0,98,83,63,29.95,29.66,4,0,5,1.91
2013-9-13,78.9,67.5,58.8,71.0,65.0,56.0,99,92,72,29.75,29.56,0,0,1,0.06
2013-9-14,66.9,59.3,51.2,57.0,54.2,50.0,94,83,68,30.05,29.76,0,0,2,0.00
2013-9-15,72.8,57.8,47.8,55.0,50.6,47.0,97,79,46,30.16,30.05,1,0,2,0.00
2013-9-16,69.5,57.3,47.3,58.0,52.0,40.0,94,83,62,30.25,30.01,1,0,1,0.00
2013-9-17,68.9,50.2,38.6,48.0,41.6,36.0,93,75,42,30.43,30.25,0,0,1,0.00
2013-9-18,77.2,55.6,40.5,51.0,46.1,40.0,98,75,38,30.33,30.14,0,0,1,0.00
2013-9-19,85.8,61.5,44.6,59.0,52.4,43.0,97,76,36,30.14,30.03,0,0,1,0.00
2013-9-20,84.5,62.4,47.7,61.0,55.0,46.0,98,80,42,30.09,29.99,0,0,1,0.00
2013-9-21,74.2,63.4,51.2,66.0,59.3,50.0,99,87,67,30.02,29.71,1,0,5,0.00
2013-9-22,70.1,62.7,50.8,67.0,57.8,47.0,99,85,59,29.83,29.59,2,0,5,0.71
2013-9-23,67.4,51.8,43.6,49.0,44.4,41.0,90,77,49,30.01,29.83,0,0,2,0.00
2013-9-24,70.6,52.9,40.8,49.0,44.3,39.0,94,75,42,30.00,29.82,0,0,1,0.00
2013-9-25,71.4,54.2,43.5,57.0,48.6,42.0,95,83,57,29.99,29.87,0,0,1,0.00
2013-9-26,71.6,57.2,51.6,53.0,50.8,49.0,94,81,50,30.13,29.99,0,0,1,0.00
2013-9-27,65.9,57.6,49.7,57.0,53.4,48.0,95,86,69,30.26,30.13,0,0,0,0.00
2013-9-28,75.2,58.3,46.9,59.0,52.2,46.0,98,82,52,30.34,30.26,0,0,1,0.00